• Join FlightAware (Why Join?)
  • Login
  • US Flag 
10:40PM EDT


 

Airport Tracker/Info


-or-


 

Live Flight TrackerFlight Track Log ✈ SWA1301 ✈ 19-Oct-2013 ✈ KTPA - KSAT

Flight Track Log - Related Links

Times and Time Zones

All times are in EDT time to prevent confusion due to time zone crossing. See the SWA1301 flight status page for this flight to view local times or setup timezone preferences in your user account.

Time Position Orientation Groundspeed Altitude Reporting Facility
EDT Latitude Longitude Course Direction KTS MPH feet Rate Location/Type
04:22PM 27.9667 -82.5333 180° South 189 217 500  Level Tampa TRACON
04:22PM 27.9500 -82.5333 180° South 150 173 1,700 2,400 Climbing Tampa TRACON
04:24PM 27.8764 -82.6158 225° Southwest 233 268 5,500 3,000 Climbing Miami Center
04:25PM 27.8403 -82.6889 241° Southwest 247 284 9,900 3,420 Climbing Miami Center
04:26PM 27.8242 -82.7750 258° West 274 315 12,400 2,520 Climbing Miami Center
04:27PM 27.8528 -82.8892 286° West 336 387 15,000 3,540 Climbing Miami Center
04:28PM 27.8772 -83.0008 284° West 341 392 19,500 2,460 Climbing Miami Center
04:29PM 27.8994 -83.1122 283° West 353 406 20,000 300 Climbing Miami Center
04:30PM 27.9275 -83.2383 284° West 385 443 20,200 1,380 Climbing Miami Center
04:31PM 27.9550 -83.3667 284° West 412 474 22,800 2,220 Climbing Miami Center
04:32PM 27.9842 -83.5022 284° West 423 487 24,700 1,920 Climbing Miami Center
04:33PM 28.0133 -83.6356 284° West 434 499 26,700 2,340 Climbing Miami Center
04:34PM 28.0425 -83.7711 284° West 440 506 29,400 2,160 Climbing Miami Center
04:36PM 28.1050 -84.0597 284° West 430 495 34,000 1,980 Climbing Jacksonville Center
04:37PM 28.1308 -84.1869 283° West 425 489 36,000 1,800 Climbing Jacksonville Center
04:38PM 28.1547 -84.3119 282° West 425 489 37,700 960 Climbing Jacksonville Center
04:39PM 28.1825 -84.4397 284° West 420 483 38,000 120 Climbing Jacksonville Center
04:40PM 28.2078 -84.5789 282° West 407 468 38,000 240 Level Jacksonville Center
04:41PM 28.2331 -84.7042 283° West 412 474 38,500 900 Climbing Jacksonville Center
04:42PM 28.2606 -84.8225 285° West 412 474 39,800 720 Climbing Jacksonville Center
04:43PM 28.2858 -84.9528 282° West 412 474 40,000 60 Climbing Jacksonville Center
04:44PM 28.3108 -85.0711 284° West 412 474 40,000  Level Jacksonville Center
04:45PM 28.3339 -85.1917 282° West 404 465 40,000  Level Jacksonville Center
04:46PM 28.3608 -85.3103 285° West 399 459 40,000  Level Jacksonville Center
04:47PM 28.3836 -85.4336 282° West 399 459 40,000  Level Jacksonville Center
04:48PM 28.4083 -85.5544 283° West 394 453 40,000  Level Jacksonville Center
04:49PM 28.4308 -85.6756 282° West 394 453 40,000  Level Jacksonville Center
04:50PM 28.4550 -85.7989 283° West 394 453 40,000  Level Jacksonville Center
04:51PM 28.4794 -85.9178 283° West 394 453 40,000  Level Jacksonville Center
04:52PM 28.5039 -86.0367 283° West 394 453 40,000  Level Jacksonville Center
04:53PM 28.5258 -86.1600 281° West 394 453 40,000  Level Jacksonville Center
04:54PM 28.5497 -86.2792 283° West 394 453 40,000  Level Jacksonville Center
04:55PM 28.5717 -86.4003 282° West 394 453 40,000  Level Jacksonville Center
04:56PM 28.5972 -86.5264 283° West 399 459 40,000  Level Jacksonville Center
04:57PM 28.6169 -86.6431 281° West 394 453 40,000  Level Jacksonville Center
04:58PM 28.6403 -86.7644 282° West 394 453 40,000  Level Jacksonville Center
04:59PM 28.6639 -86.8861 282° West 394 453 40,000  Level Jacksonville Center
05:00PM 28.6869 -87.0078 282° West 394 453 40,000  Level Jacksonville Center
05:01PM 28.7031 -87.0958 282° West 383 441 40,000  Level Jacksonville Center
05:02PM 28.7278 -87.2247 282° West 383 441 40,000  Level Jacksonville Center
05:03PM 28.7514 -87.3547 282° West 378 435 40,000  Level Houston Center
05:04PM 28.7717 -87.4728 281° West 379 436 40,000  Level Houston Center
05:05PM 28.7981 -87.6142 282° West 380 437 40,000  Level Houston Center
05:06PM 28.8186 -87.7331 281° West 381 438 40,000  Level Houston Center
05:07PM 28.8408 -87.8528 282° West 385 443 40,000  Level Houston Center
05:08PM 28.8617 -87.9764 281° West 383 441 40,000  Level Houston Center
05:09PM 28.8833 -88.0967 282° West 381 438 40,000  Level Houston Center
05:10PM 28.9033 -88.2167 281° West 384 442 40,000  Level Houston Center
05:11PM 28.9189 -88.3350 279° West 378 435 40,000  Level Houston Center
05:12PM 28.9350 -88.4536 279° West 379 436 40,000  Level Houston Center
05:13PM 28.9522 -88.5719 279° West 378 435 40,000  Level Houston Center
05:14PM 28.9675 -88.6892 279° West 374 430 40,000  Level Houston Center
05:15PM 28.9875 -88.8300 279° West 373 429 40,000  Level Houston Center
05:16PM 29.0019 -88.9456 278° West 368 423 40,000  Level Houston Center
05:18PM 29.0181 -89.0628 279° West 372 428 40,000  Level Houston Center
05:19PM 29.0339 -89.1792 279° West 371 427 40,000  Level Houston Center
05:20PM 29.0494 -89.2967 279° West 373 429 40,000  Level Houston Center
05:21PM 29.0639 -89.4142 278° West 373 429 40,000  Level Houston Center
05:22PM 29.0797 -89.5306 279° West 372 428 40,000  Level Houston Center
05:23PM 29.0981 -89.6747 278° West 379 436 40,000  Level Houston Center
05:24PM 29.1139 -89.7928 279° West 376 433 40,000  Level Houston Center
05:25PM 29.1292 -89.9117 278° West 376 433 40,000  Level Houston Center
05:26PM 29.1444 -90.0314 278° West 379 436 40,000  Level Houston Center
05:27PM 29.1594 -90.1508 278° West 378 435 40,000  Level Houston Center
05:28PM 29.1742 -90.2694 278° West 377 434 40,000  Level Houston Center
05:29PM 29.1892 -90.3875 278° West 376 433 40,000  Level Houston Center
05:30PM 29.2036 -90.5044 278° West 372 428 40,000  Level Houston Center
05:31PM 29.2211 -90.6439 278° West 370 426 40,000  Level Houston Center
05:32PM 29.2347 -90.7586 278° West 366 421 40,000  Level Houston Center
05:33PM 29.2486 -90.8744 278° West 367 422 40,000  Level Houston Center
05:34PM 29.2633 -90.9911 278° West 369 425 40,000  Level Houston Center
05:35PM 29.2772 -91.1086 278° West 372 428 40,000  Level Houston Center
05:36PM 29.2908 -91.2247 278° West 371 427 40,000  Level Houston Center
05:37PM 29.3053 -91.3419 278° West 371 427 40,000  Level Houston Center
05:38PM 29.3214 -91.4822 278° West 372 428 40,000  Level Houston Center
05:39PM 29.3342 -91.5967 277° West 364 419 40,000  Level Houston Center
05:40PM 29.3475 -91.7111 278° West 363 418 40,000  Level Houston Center
05:41PM 29.3589 -91.8150 277° West 364 419 40,000  Level Houston Center
05:42PM 29.3742 -91.9533 277° West 365 420 40,000  Level Houston Center
05:43PM 29.3875 -92.0683 278° West 366 421 40,000 240 Level Houston Center
05:44PM 29.4000 -92.1836 277° West 366 421 40,600 480 Climbing Houston Center
05:45PM 29.4125 -92.2975 277° West 361 415 41,000 180 Climbing Houston Center
05:46PM 29.4242 -92.4094 277° West 356 410 41,000  Level Houston Center
05:47PM 29.4367 -92.5231 277° West 359 413 41,000  Level Houston Center
05:48PM 29.4486 -92.6372 277° West 360 414 41,000  Level Houston Center
05:49PM 29.4639 -92.7756 277° West 364 419 41,000  Level Houston Center
05:50PM 29.4753 -92.8914 276° West 365 420 41,000  Level Houston Center
05:51PM 29.4881 -93.0069 277° West 365 420 41,000  Level Houston Center
05:53PM 29.5000 -93.1222 277° West 365 420 41,000  Level Houston Center
05:54PM 29.5114 -93.2378 276° West 364 419 41,000  Level Houston Center
05:55PM 29.5239 -93.3536 277° West 364 419 41,000  Level Houston Center
05:56PM 29.5353 -93.4689 277° West 364 419 41,000  Level Houston Center
05:57PM 29.5469 -93.5836 277° West 363 418 41,000  Level Houston Center
05:58PM 29.5608 -93.7208 277° West 361 415 41,000  Level Houston Center
05:59PM 29.5706 -93.8361 276° West 362 417 41,000  Level Houston Center
06:00PM 29.5831 -93.9506 277° West 360 414 41,000  Level Houston Center
06:01PM 29.5933 -94.0658 276° West 362 417 41,000  Level Houston Center
06:02PM 29.6044 -94.1703 277° West 361 415 41,000  Level Houston Center
06:03PM 29.6153 -94.2850 276° West 360 414 41,000  Level Houston Center
06:04PM 29.6283 -94.4225 276° West 362 417 41,000  Level Houston Center
06:05PM 29.6386 -94.5375 276° West 362 417 41,000  Level Houston Center
06:06PM 29.6492 -94.6522 276° West 363 418 41,000  Level Houston Center
06:07PM 29.6597 -94.7672 276° West 362 417 41,000  Level Houston Center
06:08PM 29.6700 -94.8828 276° West 365 420 41,000  Level Houston Center
06:09PM 29.6806 -94.9986 276° West 368 423 41,000  Level Houston Center
06:10PM 29.6922 -95.1297 276° West 371 427 41,000  Level Houston Center
06:11PM 29.7036 -95.2467 276° West 369 425 41,000  Level Houston Center
06:12PM 29.7133 -95.3675 275° West 369 425 41,000  Level Houston Center
06:13PM 29.7225 -95.4839 275° West 368 423 41,000  Level Houston Center
06:14PM 29.7319 -95.5975 275° West 362 417 41,000  Level Houston Center
06:15PM 29.7431 -95.7358 275° West 362 417 41,000 -240 Level Houston Center
06:16PM 29.7519 -95.8508 275° West 362 417 40,600 -660 Descending Houston Center
06:17PM 29.7614 -95.9669 275° West 365 420 39,700 -960 Descending Houston Center
06:18PM 29.7711 -96.0778 276° West 367 422 38,700 -1,020 Descending Houston Center
06:19PM 29.7803 -96.1931 275° West 364 419 37,700 -1,200 Descending Houston Center
06:20PM 29.7883 -96.3058 275° West 357 411 36,300 -1,500 Descending Houston Center
06:21PM 29.7981 -96.4453 275° West 366 421 34,700 -1,260 Descending Houston Center
06:22PM 29.8081 -96.5647 276° West 374 430 33,800 -900 Descending Houston Center
06:23PM 29.8164 -96.6836 275° West 376 433 32,900 -900 Descending Houston Center
06:24PM 29.8242 -96.8078 274° West 388 447 32,000 -480 Descending Houston Center
06:25PM 29.8342 -96.9289 275° West 385 443 32,000  Level Houston Center
06:26PM 29.8428 -97.0503 275° West 385 443 32,000 -840 Level Houston Center
06:27PM 29.8531 -97.1964 275° West 384 442 30,300 -2,700 Descending Houston Center
06:28PM 29.8606 -97.3189 274° West 386 444 26,500 -3,300 Descending Houston Center
06:29PM 29.8694 -97.4378 275° West 378 435 23,600 -2,940 Descending Houston Center
06:30PM 29.8775 -97.5661 274° West 383 441 20,500 -3,000 Descending Houston Center
06:31PM 29.8864 -97.6931 275° West 372 428 17,500 -3,000 Descending Houston Center
06:32PM 29.8894 -97.7447 274° West 362 417 16,000 -3,180 Descending Houston Center
06:32PM 29.8936 -97.8058 275° West 356 410 14,300 -3,060 Descending Houston Center
06:33PM 29.8894 -97.8750 266° West 351 404 12,600 -2,640 Descending Houston Center
06:34PM 29.8750 -97.9150 247° West 350 403 11,600 -1,620 Descending Houston Center
06:34PM 29.8489 -97.9764 244° Southwest 344 396 11,000 -1,140 Descending Houston Center
06:35PM 29.8342 -98.0122 245° Southwest 339 390 10,500 -900 Descending Houston Center
06:35PM 29.8108 -98.0631 242° Southwest 293 337 10,100 -1,140 Descending Houston Center
06:36PM 29.7822 -98.0886 218° Southwest 286 329 9,400 -1,740 Descending Houston Center
06:36PM 29.7464 -98.1144 212° Southwest 276 318 8,400 -1,800 Descending Houston Center
06:37PM 29.7153 -98.1367 212° Southwest 283 326 7,600 -1,500 Descending Houston Center
06:37PM 29.6797 -98.1636 213° Southwest 283 326 6,900 -1,020 Descending Houston Center
06:38PM 29.6514 -98.1869 216° Southwest 277 319 6,600 -600 Descending Houston Center
06:38PM 29.6281 -98.2181 229° Southwest 248 285 6,300 -720 Descending Houston Center
06:39PM 29.6036 -98.2486 227° Southwest 238 274 5,900 -900 Descending Houston Center
06:39PM 29.5803 -98.2694 218° Southwest 226 260 5,400 -1,080 Descending Houston Center
06:40PM 29.5564 -98.2972 225° Southwest 229 264 4,800 -1,200 Descending Houston Center
06:40PM 29.5344 -98.3183 220° Southwest 226 260 4,200 -1,200 Descending Houston Center
06:41PM 29.5100 -98.3467 225° Southwest 228 262 3,600 -1,200 Descending Houston Center
06:41PM 29.4886 -98.3672 220° Southwest 221 254 3,000 -1,140 Descending Houston Center
06:42PM 29.4731 -98.3933 236° Southwest 196 226 2,500 -1,020 Descending Houston Center
06:42PM 29.4864 -98.4131 308° West 146 168 2,000 -780 Descending Houston Center
06:43PM 29.5014 -98.4311 314° West 145 167 1,700 -720 Descending Houston Center
06:43PM 29.5106 -98.4461 305° West 129 148 1,300 -840 Descending Houston Center
06:44PM 29.5267 -98.4631 318° Northwest 137 158 900 -780 Descending Houston Center
06:46PM 29.5333 -98.4667 16° North  Level FlightAware Approximate